»·PEaware :: N2MZ KAVX-KSAN

N2MZ :: KAVX-KSAN

FLIGHT INFORMATION

Flight Status: Arrived
Operator: Privately registered:
United States
More flights under this callsign
Pilot: Mike Z. (25595)
Aircraft: CESSNA 172 SKYHAWK
(C172)
More flights by this aircraft type
Origin: KAVX Catalina
United States
Destination: KSAN San Diego Intl-Lindbergh
United States
More flights between these airports :: More routes between these airports
Route: +SXC V208 OCN V23 MZB
File this flight plan on PilotEdge
Remarks: I-8
Altitude:
(Current/Filed)
5,000ft
Speed:
(Current/Filed)
120kts
Departed: 21-Sep-19 01:44 PM
Arrived: 21-Sep-19 02:49 PM
Distance/Time
Traveled:
74nm/1:04
Distance/Time
To Go:
Arrived

Flight Plot

Page will automatically refresh every two minutes.


Map Options




Map Legend


Flown Route
Filed Route
Departure Airport
Arrival Airport
Navaid (VOR, NDB)
Fix

Horizontal Profiles

Position Reports

Time Latitude Longitude Heading Altitude Ground
Speed
21-Sep-19 13:34 33.403153 -118.416381 0 1548ft 0kts
21-Sep-19 13:35 33.403153 -118.416381 0 1548ft 0kts
21-Sep-19 13:36 33.403153 -118.416381 0 1548ft 0kts
21-Sep-19 13:37 33.404775 -118.414993 9 1539ft 5kts
21-Sep-19 13:38 33.407058 -118.411580 57 1509ft 8kts
21-Sep-19 13:39 33.407162 -118.411398 339 1507ft 0kts
21-Sep-19 13:40 33.407162 -118.411398 339 1507ft 0kts
21-Sep-19 13:41 33.407162 -118.411398 339 1507ft 0kts
21-Sep-19 13:42 33.407162 -118.412152 235 1513ft 22kts
21-Sep-19 13:43 33.397525 -118.429348 242 1966ft 75kts
21-Sep-19 13:44 33.384530 -118.441325 103 2652ft 78kts
21-Sep-19 13:45 33.379478 -118.412831 106 3244ft 90kts
21-Sep-19 13:47 33.371784 -118.385238 119 3914ft 88kts
21-Sep-19 13:48 33.368636 -118.349189 91 4018ft 130kts
21-Sep-19 13:49 33.362386 -118.310385 105 4780ft 89kts
21-Sep-19 13:50 33.358619 -118.279064 99 5003ft 116kts
21-Sep-19 13:51 33.353392 -118.238609 97 5009ft 127kts
21-Sep-19 13:52 33.348840 -118.197187 97 5003ft 122kts
21-Sep-19 13:53 33.344060 -118.157326 98 5000ft 120kts
21-Sep-19 13:54 33.339045 -118.117623 98 4997ft 120kts
21-Sep-19 13:55 33.334004 -118.078677 98 5069ft 116kts
21-Sep-19 13:56 33.328888 -118.039688 98 5061ft 120kts
21-Sep-19 13:57 33.323660 -118.000133 98 5055ft 120kts
21-Sep-19 13:58 33.318371 -117.960274 98 5049ft 121kts
21-Sep-19 13:59 33.313056 -117.920349 98 5042ft 121kts
21-Sep-19 14:00 33.307714 -117.880332 98 5034ft 122kts
21-Sep-19 14:01 33.302229 -117.839300 98 5026ft 127kts
21-Sep-19 14:02 33.296208 -117.797505 98 5025ft 127kts
21-Sep-19 14:03 33.290773 -117.755622 97 5026ft 127kts
21-Sep-19 14:04 33.286035 -117.713569 95 5026ft 127kts
21-Sep-19 14:05 33.281403 -117.671488 97 5026ft 127kts
21-Sep-19 14:06 33.276018 -117.629424 97 5026ft 127kts
21-Sep-19 14:07 33.269404 -117.587756 103 5026ft 127kts
21-Sep-19 14:08 33.258957 -117.547098 106 5023ft 128kts
21-Sep-19 14:08 33.251559 -117.512646 102 5050ft 125kts
21-Sep-19 14:09 33.244387 -117.471991 100 5038ft 122kts
21-Sep-19 14:11 33.236834 -117.426191 130 5032ft 120kts
21-Sep-19 14:11 33.212903 -117.410407 152 5035ft 118kts
21-Sep-19 14:12 33.183687 -117.392585 162 5035ft 117kts
21-Sep-19 14:13 33.153139 -117.381144 161 5036ft 117kts
21-Sep-19 14:14 33.122275 -117.368620 160 5037ft 116kts
21-Sep-19 14:15 33.091702 -117.356700 162 5037ft 115kts
21-Sep-19 14:16 33.062283 -117.345408 161 5037ft 115kts
21-Sep-19 14:17 33.031760 -117.333172 161 5037ft 115kts
21-Sep-19 14:18 33.001323 -117.320942 161 5037ft 115kts
21-Sep-19 14:19 32.970773 -117.308583 161 5037ft 115kts
21-Sep-19 14:20 32.940018 -117.296962 162 5036ft 116kts
21-Sep-19 14:21 32.909255 -117.284193 154 5035ft 117kts
21-Sep-19 14:22 32.880634 -117.267363 154 5033ft 117kts
21-Sep-19 14:23 32.849969 -117.253674 165 5019ft 117kts
21-Sep-19 14:24 32.818339 -117.241123 164 5018ft 120kts
21-Sep-19 14:25 32.787070 -117.228026 162 5018ft 117kts
21-Sep-19 14:26 32.765657 -117.200423 105 5021ft 118kts
21-Sep-19 14:27 32.759393 -117.161964 93 5021ft 118kts
21-Sep-19 14:28 32.756515 -117.123286 93 5020ft 115kts
21-Sep-19 14:29 32.753604 -117.083190 93 5007ft 126kts
21-Sep-19 14:30 32.750800 -117.040828 93 5005ft 129kts
21-Sep-19 14:31 32.748269 -116.998136 93 5002ft 126kts
21-Sep-19 14:32 32.746210 -116.957789 93 5002ft 119kts
21-Sep-19 14:33 32.744551 -116.918503 92 5001ft 118kts
21-Sep-19 14:34 32.743187 -116.879298 92 5000ft 118kts
21-Sep-19 14:35 32.722463 -116.860873 191 4592ft 113kts
21-Sep-19 14:36 32.692745 -116.867123 221 3980ft 101kts
21-Sep-19 14:37 32.683171 -116.894165 251 3807ft 81kts
21-Sep-19 14:38 32.674728 -116.920166 237 3807ft 84kts
21-Sep-19 14:39 32.675794 -116.945628 283 3812ft 84kts
21-Sep-19 14:40 32.681335 -116.971507 286 3737ft 88kts
21-Sep-19 14:41 32.688139 -117.002994 282 3120ft 108kts
21-Sep-19 14:42 32.696420 -117.035802 287 2678ft 90kts
21-Sep-19 14:43 32.703585 -117.066941 288 2095ft 102kts
21-Sep-19 14:44 32.711249 -117.098661 287 1634ft 104kts
21-Sep-19 14:45 32.719628 -117.131337 278 699ft 93kts
21-Sep-19 14:46 32.725528 -117.156719 286 604ft 70kts
21-Sep-19 14:47 32.730681 -117.177799 287 111ft 65kts
21-Sep-19 14:48 32.733761 -117.188147 8 16ft 3kts
21-Sep-19 14:49 32.733999 -117.188075 26 17ft 0kts
21-Sep-19 14:50 32.733910 -117.186359 105 17ft 23kts
21-Sep-19 14:51 32.732190 -117.179297 102 18ft 22kts
21-Sep-19 14:52 32.732806 -117.177437 142 21ft 0kts
21-Sep-19 14:53 32.732806 -117.177437 142 21ft 0kts
21-Sep-19 14:54 32.732806 -117.177437 142 21ft 0kts
21-Sep-19 14:55 32.732806 -117.177437 142 21ft 0kts
21-Sep-19 14:56 32.732806 -117.177437 142 21ft 0kts
21-Sep-19 14:57 32.732806 -117.177437 142 21ft 0kts
21-Sep-19 14:58 32.732806 -117.177437 142 21ft 0kts
21-Sep-19 14:59 32.732806 -117.177437 142 21ft 0kts
21-Sep-19 15:00 32.732806 -117.177437 142 21ft 0kts
21-Sep-19 15:01 32.732806 -117.177437 142 21ft 0kts
21-Sep-19 15:02 32.732806 -117.177437 142 21ft 0kts

Navigation Log

Ident Type
Flight plan parsing failed, navigation log unavailable